Terminal Aerodrome Forecast
Issued by NWS

Home | Current Version | Previous Version | Text Only | Print | Product List | Glossary On
Versions: 1 2 3 4 5 6 7 8 9 10 11 12 13 14 15 16 17 18 19 20 21 22 23 24 25 26 27 28 29 30 31 32 33
000
FTUS46 KPDT 212327
TAFDLS
TAF
KDLS 212327Z 2200/2224 VRB03KT P6SM SCT045 BKN120 OVC200
     FM220300 VRB02KT P6SM VCSH BKN070 OVC100
     FM220700 10004KT 4SM -SHSN BKN024 OVC040
     FM221500 11004KT 6SM BR VCSH BKN028 OVC045
     FM221800 05005KT P6SM SCT035 BKN200=

USA.gov is the U.S. government's official web portal to all federal, state and local government web resources and services.